Time;durP1;ratioP1;P1;durP2;ratioP2;P2;SDS_P1;SDS_P2;PMS_P1;PMS_P2;Temp;Humidity;BMP_temperature;BMP_pressure;BME280_temperature;BME280_humidity;BME280_pressure;Samples;Min_cycle;Max_cycle;Signal;HPM_P1;HPM_P2
2022/03/29 00:01:42;;;;;;;27.50;14.88;;;;;;;;;;5019685;28;20029;-60
2022/03/29 00:04:08;;;;;;;29.52;14.82;;;;;;;;;;5020875;28;20650;-61
2022/03/29 00:06:34;;;;;;;26.77;14.77;;;;;;;;;;5017398;28;20445;-61
2022/03/29 00:09:00;;;;;;;29.45;15.77;;;;;;;;;;5014106;28;20025;-60
2022/03/29 00:11:26;;;;;;;27.30;15.95;;;;;;;;;;5020876;28;21597;-61
2022/03/29 00:13:52;;;;;;;29.73;15.00;;;;;;;;;;5015832;28;20028;-61
2022/03/29 00:16:18;;;;;;;26.98;15.35;;;;;;;;;;5023044;28;20025;-61
2022/03/29 00:18:44;;;;;;;29.58;15.98;;;;;;;;;;5017285;28;20366;-60
2022/03/29 00:21:11;;;;;;;30.92;15.85;;;;;;;;;;5018514;28;20117;-60
2022/03/29 00:23:37;;;;;;;30.98;15.40;;;;;;;;;;5020730;28;20022;-60
2022/03/29 00:26:03;;;;;;;31.02;15.45;;;;;;;;;;5017457;28;20108;-60
2022/03/29 00:28:29;;;;;;;28.92;14.30;;;;;;;;;;5021199;28;20388;-60
2022/03/29 00:30:55;;;;;;;30.00;15.13;;;;;;;;;;5018126;28;20029;-60
2022/03/29 00:33:21;;;;;;;32.80;16.10;;;;;;;;;;5019876;28;20558;-61
2022/03/29 00:35:47;;;;;;;26.92;15.35;;;;;;;;;;5018857;28;20036;-60
2022/03/29 00:38:14;;;;;;;34.35;16.60;;;;;;;;;;5020492;28;20025;-61
2022/03/29 00:40:40;;;;;;;31.38;16.08;;;;;;;;;;5019955;28;20052;-60
2022/03/29 00:43:08;;;;;;;30.65;15.68;;;;;;;;;;5014984;28;20051;-60
2022/03/29 00:45:34;;;;;;;27.67;15.07;;;;;;;;;;5020191;28;20026;-60
2022/03/29 00:48:02;;;;;;;26.85;15.32;;;;;;;;;;5017373;28;20034;-60
2022/03/29 00:50:28;;;;;;;26.20;15.30;;;;;;;;;;5005485;28;20040;-60
2022/03/29 00:52:54;;;;;;;30.00;15.38;;;;;;;;;;5024135;28;20025;-60
2022/03/29 00:55:20;;;;;;;31.98;15.98;;;;;;;;;;5015382;28;20811;-60
2022/03/29 00:57:46;;;;;;;32.05;16.30;;;;;;;;;;5021402;28;20030;-61
2022/03/29 01:00:14;;;;;;;28.63;15.80;;;;;;;;;;5013450;28;20030;-60
2022/03/29 01:02:41;;;;;;;30.48;16.73;;;;;;;;;;5022877;28;20087;-60
2022/03/29 01:05:07;;;;;;;29.55;17.40;;;;;;;;;;5023697;28;20049;-60
2022/03/29 01:07:33;;;;;;;32.08;17.15;;;;;;;;;;5018804;28;20034;-60
2022/03/29 01:10:01;;;;;;;27.33;16.23;;;;;;;;;;5014756;28;20645;-60
2022/03/29 01:12:28;;;;;;;32.95;17.30;;;;;;;;;;5019971;28;20036;-61
2022/03/29 01:14:54;;;;;;;33.00;17.30;;;;;;;;;;5019754;28;20033;-60
2022/03/29 01:17:39;;;;;;;30.83;17.40;;;;;;;;;;5022479;28;20037;-60
2022/03/29 01:20:09;;;;;;;31.98;17.80;;;;;;;;;;5022164;28;20543;-60
2022/03/29 01:22:35;;;;;;;30.83;17.63;;;;;;;;;;5020736;28;20036;-60
2022/03/29 01:25:02;;;;;;;36.85;17.75;;;;;;;;;;5017409;28;20039;-60
2022/03/29 01:27:31;;;;;;;31.73;17.60;;;;;;;;;;5015634;28;20034;-61
2022/03/29 01:29:59;;;;;;;28.52;17.42;;;;;;;;;;5020399;28;20084;-60
2022/03/29 01:32:29;;;;;;;27.92;16.80;;;;;;;;;;5002923;28;20056;-60
2022/03/29 01:34:56;;;;;;;34.95;18.67;;;;;;;;;;5015737;28;20060;-60
2022/03/29 01:37:22;;;;;;;29.90;18.13;;;;;;;;;;5016812;28;20061;-60
2022/03/29 01:39:48;;;;;;;33.45;18.15;;;;;;;;;;5015837;28;20064;-61
2022/03/29 01:42:13;;;;;;;32.05;19.08;;;;;;;;;;5012422;28;20021;-60
2022/03/29 01:44:40;;;;;;;32.40;17.80;;;;;;;;;;5020097;28;20014;-60
2022/03/29 01:47:07;;;;;;;33.60;18.38;;;;;;;;;;5016220;28;20025;-60
2022/03/29 01:49:33;;;;;;;31.40;18.00;;;;;;;;;;5017609;28;20029;-60
2022/03/29 01:51:59;;;;;;;33.03;18.10;;;;;;;;;;5013013;28;20561;-60
2022/03/29 01:54:25;;;;;;;28.55;17.52;;;;;;;;;;5022659;28;20025;-60
2022/03/29 01:56:52;;;;;;;31.13;18.88;;;;;;;;;;5019960;28;20033;-60
2022/03/29 01:59:18;;;;;;;32.42;19.17;;;;;;;;;;5016486;28;20045;-60
2022/03/29 02:01:45;;;;;;;27.55;17.75;;;;;;;;;;5024294;28;20026;-60
2022/03/29 02:04:12;;;;;;;30.23;18.48;;;;;;;;;;5017716;28;20029;-60
2022/03/29 02:06:38;;;;;;;39.78;19.05;;;;;;;;;;5018841;28;20477;-60
2022/03/29 02:09:08;;;;;;;32.20;18.70;;;;;;;;;;4994927;28;20449;-61
2022/03/29 02:11:35;;;;;;;36.30;18.80;;;;;;;;;;4998205;28;20022;-60
2022/03/29 02:14:02;;;;;;;31.92;18.67;;;;;;;;;;5018402;28;20032;-60
2022/03/29 02:16:28;;;;;;;31.83;18.55;;;;;;;;;;5024581;28;20033;-60
2022/03/29 02:18:54;;;;;;;29.05;18.17;;;;;;;;;;5021336;28;20064;-61
2022/03/29 02:21:20;;;;;;;31.13;18.55;;;;;;;;;;5021253;28;20057;-61
2022/03/29 02:23:46;;;;;;;34.63;19.77;;;;;;;;;;5016669;28;20036;-60
2022/03/29 02:26:12;;;;;;;32.17;19.88;;;;;;;;;;5017881;28;20484;-60
2022/03/29 02:28:38;;;;;;;38.10;20.92;;;;;;;;;;5017894;28;20476;-60
2022/03/29 02:31:04;;;;;;;31.02;19.48;;;;;;;;;;5015997;28;20025;-60
2022/03/29 02:33:30;;;;;;;36.22;20.60;;;;;;;;;;5012391;28;20380;-60
2022/03/29 02:35:56;;;;;;;37.38;20.83;;;;;;;;;;5008870;28;20025;-60
2022/03/29 02:38:22;;;;;;;35.63;21.30;;;;;;;;;;5016393;28;20112;-61
2022/03/29 02:40:49;;;;;;;34.08;20.75;;;;;;;;;;5017173;28;20018;-61
2022/03/29 02:43:15;;;;;;;37.83;21.40;;;;;;;;;;5020976;28;20504;-60
2022/03/29 02:45:41;;;;;;;38.65;22.27;;;;;;;;;;5018195;28;20032;-61
2022/03/29 02:48:07;;;;;;;35.03;20.85;;;;;;;;;;5016056;28;20056;-60
2022/03/29 02:50:33;;;;;;;34.50;22.23;;;;;;;;;;5013571;28;20021;-60
2022/03/29 02:53:01;;;;;;;34.47;21.80;;;;;;;;;;5019497;28;20350;-60
2022/03/29 02:55:32;;;;;;;37.17;22.80;;;;;;;;;;5015752;28;20064;-60
2022/03/29 02:57:58;;;;;;;35.60;22.35;;;;;;;;;;5012975;28;20025;-60
2022/03/29 03:00:24;;;;;;;38.53;23.42;;;;;;;;;;5011800;28;20033;-60
2022/03/29 03:02:51;;;;;;;37.80;23.20;;;;;;;;;;5019488;28;20053;-60
2022/03/29 03:05:19;;;;;;;36.45;23.13;;;;;;;;;;5015830;28;20080;-60
2022/03/29 03:07:45;;;;;;;38.25;23.77;;;;;;;;;;5015735;28;20129;-60
2022/03/29 03:10:12;;;;;;;39.33;24.10;;;;;;;;;;5016881;28;20686;-60
2022/03/29 03:12:39;;;;;;;36.92;24.15;;;;;;;;;;5015763;28;20235;-60
2022/03/29 03:15:06;;;;;;;38.03;23.40;;;;;;;;;;5017191;28;20095;-60
2022/03/29 03:17:32;;;;;;;37.70;24.25;;;;;;;;;;5019389;28;20036;-60
2022/03/29 03:19:58;;;;;;;41.00;25.48;;;;;;;;;;5015669;28;20026;-60
2022/03/29 03:22:24;;;;;;;40.60;25.30;;;;;;;;;;5000430;28;20084;-61
2022/03/29 03:24:51;;;;;;;38.15;23.55;;;;;;;;;;5018164;28;20067;-60
2022/03/29 03:27:17;;;;;;;41.03;24.77;;;;;;;;;;5021473;28;20044;-60
2022/03/29 03:29:47;;;;;;;39.05;24.10;;;;;;;;;;5013076;28;20046;-60
2022/03/29 03:32:13;;;;;;;38.03;24.40;;;;;;;;;;4998554;28;20029;-60
2022/03/29 03:34:39;;;;;;;45.22;25.38;;;;;;;;;;5018918;28;20037;-60
2022/03/29 03:37:06;;;;;;;42.17;25.40;;;;;;;;;;5020027;28;20501;-60
2022/03/29 03:39:37;;;;;;;43.35;26.67;;;;;;;;;;5021002;28;20018;-60
2022/03/29 03:42:03;;;;;;;38.92;25.40;;;;;;;;;;5007626;28;20022;-60
2022/03/29 03:44:30;;;;;;;43.22;26.35;;;;;;;;;;5016414;28;20104;-60
2022/03/29 03:46:56;;;;;;;42.10;27.85;;;;;;;;;;5012603;28;20056;-60
2022/03/29 03:49:22;;;;;;;44.92;27.85;;;;;;;;;;5016409;28;20089;-60
2022/03/29 03:51:48;;;;;;;40.90;26.73;;;;;;;;;;5016667;28;20037;-60
2022/03/29 03:54:14;;;;;;;43.70;27.13;;;;;;;;;;5016625;28;20040;-60
2022/03/29 03:56:40;;;;;;;47.55;28.35;;;;;;;;;;5019472;28;20065;-61
2022/03/29 03:59:06;;;;;;;39.78;27.02;;;;;;;;;;5009414;28;20030;-60
2022/03/29 04:01:33;;;;;;;51.47;29.45;;;;;;;;;;5015235;28;20052;-60
2022/03/29 04:03:59;;;;;;;45.03;28.63;;;;;;;;;;5016302;28;20030;-60
2022/03/29 04:06:25;;;;;;;44.72;29.40;;;;;;;;;;5018862;28;20037;-60
2022/03/29 04:08:51;;;;;;;44.58;28.48;;;;;;;;;;5016484;28;20025;-60
2022/03/29 04:11:17;;;;;;;45.15;28.70;;;;;;;;;;5018495;28;20056;-60
2022/03/29 04:13:43;;;;;;;45.78;28.90;;;;;;;;;;5018652;28;20036;-60
2022/03/29 04:16:09;;;;;;;47.60;31.27;;;;;;;;;;5015763;28;20386;-59
2022/03/29 04:18:35;;;;;;;45.58;29.63;;;;;;;;;;5022724;28;20041;-60
2022/03/29 04:21:01;;;;;;;45.17;29.75;;;;;;;;;;5009724;28;20025;-60
2022/03/29 04:23:27;;;;;;;47.33;30.55;;;;;;;;;;5022333;28;20095;-60
2022/03/29 04:25:54;;;;;;;46.88;31.77;;;;;;;;;;5014287;28;20524;-60
2022/03/29 04:28:20;;;;;;;47.85;29.60;;;;;;;;;;5019157;28;20484;-60
2022/03/29 04:30:46;;;;;;;50.03;31.35;;;;;;;;;;5022481;28;20031;-60
2022/03/29 04:33:13;;;;;;;46.80;30.65;;;;;;;;;;5017667;28;20489;-60
2022/03/29 04:35:39;;;;;;;47.30;31.40;;;;;;;;;;5017836;28;20033;-60
2022/03/29 04:38:05;;;;;;;45.17;30.70;;;;;;;;;;5021849;28;20221;-60
2022/03/29 04:40:31;;;;;;;50.10;31.33;;;;;;;;;;5017124;28;20251;-60
2022/03/29 04:43:00;;;;;;;48.65;31.52;;;;;;;;;;5019186;28;20112;-60
2022/03/29 04:45:26;;;;;;;48.30;30.33;;;;;;;;;;5018830;28;20025;-60
2022/03/29 04:47:52;;;;;;;47.97;31.15;;;;;;;;;;5016812;28;20376;-60
2022/03/29 04:50:18;;;;;;;49.95;31.00;;;;;;;;;;5020165;28;20507;-60
2022/03/29 04:52:46;;;;;;;48.97;31.10;;;;;;;;;;5000750;28;20472;-60
2022/03/29 04:55:12;;;;;;;49.78;31.58;;;;;;;;;;5015501;28;20029;-60
2022/03/29 04:57:41;;;;;;;49.35;33.03;;;;;;;;;;5019782;28;20034;-60
2022/03/29 05:00:08;;;;;;;50.03;31.15;;;;;;;;;;5016165;28;20040;-60
2022/03/29 05:02:35;;;;;;;50.58;31.73;;;;;;;;;;5021164;28;20203;-60
2022/03/29 05:05:02;;;;;;;54.92;32.97;;;;;;;;;;5013319;28;20089;-60
2022/03/29 05:07:28;;;;;;;50.70;32.35;;;;;;;;;;5017751;28;20033;-60
2022/03/29 05:09:55;;;;;;;53.45;32.55;;;;;;;;;;5014525;28;20026;-60
2022/03/29 05:12:20;;;;;;;51.72;32.42;;;;;;;;;;5018044;28;20099;-60
2022/03/29 05:14:46;;;;;;;53.92;33.63;;;;;;;;;;5018217;28;20037;-60
2022/03/29 05:17:13;;;;;;;53.90;34.10;;;;;;;;;;5014032;28;20045;-60
2022/03/29 05:19:39;;;;;;;51.75;34.15;;;;;;;;;;5023767;28;20108;-60
2022/03/29 05:22:05;;;;;;;53.58;34.88;;;;;;;;;;5021302;28;20473;-61
2022/03/29 05:24:31;;;;;;;55.25;33.67;;;;;;;;;;5022410;28;20013;-61
2022/03/29 05:26:57;;;;;;;55.58;35.40;;;;;;;;;;5013727;28;20041;-61
2022/03/29 05:29:25;;;;;;;57.78;34.30;;;;;;;;;;5018602;28;20064;-61
2022/03/29 05:31:51;;;;;;;54.63;33.83;;;;;;;;;;5014341;28;20108;-60
2022/03/29 05:34:17;;;;;;;53.28;34.08;;;;;;;;;;5015501;28;20092;-60
2022/03/29 05:36:45;;;;;;;52.58;33.67;;;;;;;;;;5019517;28;20464;-60
2022/03/29 05:39:14;;;;;;;56.03;34.67;;;;;;;;;;5015651;28;20030;-60
2022/03/29 05:41:40;;;;;;;51.95;33.72;;;;;;;;;;5018790;28;20087;-60
2022/03/29 05:44:06;;;;;;;53.35;34.75;;;;;;;;;;5016070;28;20520;-60
2022/03/29 05:49:17;;;;;;;54.47;35.42;;;;;;;;;;5014094;28;20044;-60
2022/03/29 05:51:43;;;;;;;56.40;34.30;;;;;;;;;;5020340;28;20025;-61
2022/03/29 05:54:09;;;;;;;56.60;34.67;;;;;;;;;;5016557;28;20030;-61
2022/03/29 05:56:35;;;;;;;52.97;35.50;;;;;;;;;;4997990;28;20050;-61
2022/03/29 05:59:01;;;;;;;55.60;35.05;;;;;;;;;;5014558;28;20087;-60
2022/03/29 06:01:27;;;;;;;57.35;34.40;;;;;;;;;;5022413;28;20671;-61
2022/03/29 06:03:53;;;;;;;54.80;35.20;;;;;;;;;;5020704;28;20049;-61
2022/03/29 06:06:19;;;;;;;58.25;34.97;;;;;;;;;;5017115;28;20068;-61
2022/03/29 06:08:45;;;;;;;56.10;35.03;;;;;;;;;;5017928;28;20025;-61
2022/03/29 06:11:12;;;;;;;58.72;36.45;;;;;;;;;;5013272;28;20037;-61
2022/03/29 06:13:38;;;;;;;60.15;36.35;;;;;;;;;;5020503;28;20443;-61
2022/03/29 06:16:04;;;;;;;55.75;37.10;;;;;;;;;;5018472;28;20034;-61
2022/03/29 06:18:31;;;;;;;54.47;36.90;;;;;;;;;;5013464;28;20029;-61
2022/03/29 06:20:57;;;;;;;57.63;36.80;;;;;;;;;;5021404;28;20100;-61
2022/03/29 06:23:23;;;;;;;57.72;37.00;;;;;;;;;;5016666;28;20032;-61
2022/03/29 06:25:50;;;;;;;57.90;36.78;;;;;;;;;;5017487;28;20021;-61
2022/03/29 06:28:16;;;;;;;60.65;36.88;;;;;;;;;;5016019;28;20409;-61
2022/03/29 06:30:42;;;;;;;58.97;37.83;;;;;;;;;;5014964;28;20030;-61
2022/03/29 06:33:09;;;;;;;53.72;37.40;;;;;;;;;;5015884;28;20034;-61
2022/03/29 06:35:37;;;;;;;59.13;38.67;;;;;;;;;;5011960;28;20029;-61
2022/03/29 06:38:03;;;;;;;58.72;37.80;;;;;;;;;;5009478;28;20041;-61
2022/03/29 06:40:29;;;;;;;58.28;38.72;;;;;;;;;;5018293;28;20036;-61
2022/03/29 06:42:57;;;;;;;60.78;38.67;;;;;;;;;;5014780;28;20029;-61
2022/03/29 06:45:23;;;;;;;66.30;38.35;;;;;;;;;;5019116;28;20022;-61
2022/03/29 06:47:50;;;;;;;61.72;40.70;;;;;;;;;;5012542;28;20037;-61
2022/03/29 06:50:16;;;;;;;60.25;38.00;;;;;;;;;;5012851;28;20030;-61
2022/03/29 06:52:44;;;;;;;64.18;41.58;;;;;;;;;;5014855;28;20388;-61
2022/03/29 06:55:12;;;;;;;62.92;40.08;;;;;;;;;;5015467;28;20052;-61
2022/03/29 06:57:38;;;;;;;62.88;38.88;;;;;;;;;;5018711;28;20029;-61
2022/03/29 07:00:06;;;;;;;61.40;38.78;;;;;;;;;;5015936;28;20053;-61
2022/03/29 07:02:33;;;;;;;66.35;40.50;;;;;;;;;;5014138;28;20631;-60
2022/03/29 07:04:59;;;;;;;64.03;40.35;;;;;;;;;;5015214;28;20018;-61
2022/03/29 07:07:26;;;;;;;65.82;41.25;;;;;;;;;;5015710;28;20136;-61
2022/03/29 07:12:50;;;;;;;69.57;40.63;;;;;;;;;;5011992;28;20057;-61
2022/03/29 07:15:17;;;;;;;69.65;43.05;;;;;;;;;;5016711;28;20033;-61
2022/03/29 07:17:43;;;;;;;71.18;43.97;;;;;;;;;;4996839;28;20094;-61
2022/03/29 07:20:09;;;;;;;67.93;41.53;;;;;;;;;;5018698;28;20033;-61
2022/03/29 07:22:35;;;;;;;70.95;42.35;;;;;;;;;;5018871;28;20068;-61
2022/03/29 07:25:01;;;;;;;71.72;44.33;;;;;;;;;;5015221;28;20520;-61
2022/03/29 07:27:27;;;;;;;78.35;46.33;;;;;;;;;;5013246;28;20593;-61
2022/03/29 07:29:54;;;;;;;74.70;46.00;;;;;;;;;;5016621;28;20026;-61
2022/03/29 07:32:21;;;;;;;84.40;45.78;;;;;;;;;;5015705;28;20171;-61
2022/03/29 07:34:47;;;;;;;81.68;46.45;;;;;;;;;;5020422;28;20495;-61
2022/03/29 07:37:13;;;;;;;83.75;47.00;;;;;;;;;;5018478;28;20143;-61
2022/03/29 07:39:40;;;;;;;78.00;46.50;;;;;;;;;;4999023;28;20124;-60
2022/03/29 07:42:07;;;;;;;85.03;47.65;;;;;;;;;;5017709;28;20041;-60
2022/03/29 07:44:32;;;;;;;87.55;48.88;;;;;;;;;;5020587;28;20026;-60
2022/03/29 07:47:00;;;;;;;82.80;49.10;;;;;;;;;;5028402;28;20026;-61
2022/03/29 07:49:29;;;;;;;96.65;51.65;;;;;;;;;;5022588;28;20037;-61
2022/03/29 07:51:55;;;;;;;83.45;49.22;;;;;;;;;;5027473;28;20036;-61
2022/03/29 07:54:21;;;;;;;98.50;51.42;;;;;;;;;;5000649;28;20034;-61
2022/03/29 07:56:47;;;;;;;96.22;50.05;;;;;;;;;;5023674;28;20026;-60
2022/03/29 07:59:13;;;;;;;97.88;52.85;;;;;;;;;;5022313;28;20418;-61
2022/03/29 08:01:39;;;;;;;106.20;54.42;;;;;;;;;;5025153;28;20032;-60
2022/03/29 08:04:05;;;;;;;113.28;56.75;;;;;;;;;;5016559;28;20025;-61
2022/03/29 08:06:31;;;;;;;133.18;61.63;;;;;;;;;;5026447;28;20388;-61
2022/03/29 08:08:57;;;;;;;144.00;65.28;;;;;;;;;;5022221;28;20230;-61
2022/03/29 08:11:24;;;;;;;146.68;65.40;;;;;;;;;;5019649;28;20713;-61
2022/03/29 08:13:50;;;;;;;170.75;71.85;;;;;;;;;;5024024;28;20029;-61
2022/03/29 08:16:16;;;;;;;164.88;71.07;;;;;;;;;;5000834;28;20042;-61
2022/03/29 08:18:42;;;;;;;176.35;71.63;;;;;;;;;;5023997;28;20109;-61
2022/03/29 08:23:54;;;;;;;191.98;75.72;;;;;;;;;;5016109;28;20431;-61
2022/03/29 08:26:20;;;;;;;201.15;81.10;;;;;;;;;;5021402;28;20038;-61
2022/03/29 08:28:46;;;;;;;207.40;81.65;;;;;;;;;;5022169;28;20120;-61
2022/03/29 08:31:13;;;;;;;215.13;86.53;;;;;;;;;;5021591;28;20537;-61
2022/03/29 08:33:39;;;;;;;196.38;78.30;;;;;;;;;;5017476;28;20423;-61
2022/03/29 08:36:05;;;;;;;201.95;84.32;;;;;;;;;;5015659;28;20025;-61
2022/03/29 08:38:31;;;;;;;198.85;81.68;;;;;;;;;;5020036;28;20625;-61
2022/03/29 08:40:58;;;;;;;187.60;79.07;;;;;;;;;;5024722;28;20018;-61
2022/03/29 08:43:29;;;;;;;191.25;81.13;;;;;;;;;;5020287;28;20017;-61
2022/03/29 08:45:55;;;;;;;189.15;81.05;;;;;;;;;;5022848;28;20017;-61
2022/03/29 08:48:28;;;;;;;187.45;78.95;;;;;;;;;;5017809;28;20464;-60
2022/03/29 08:50:56;;;;;;;189.98;81.65;;;;;;;;;;5023232;28;20032;-61
2022/03/29 08:53:23;;;;;;;191.15;81.88;;;;;;;;;;5022103;28;20044;-61
2022/03/29 08:55:49;;;;;;;184.15;80.20;;;;;;;;;;5016732;28;20060;-60
2022/03/29 08:58:18;;;;;;;183.88;78.95;;;;;;;;;;5018056;28;20038;-61
2022/03/29 09:00:46;;;;;;;182.32;77.97;;;;;;;;;;5020854;28;20030;-61
2022/03/29 09:03:14;;;;;;;182.57;75.40;;;;;;;;;;5019260;28;20017;-61
2022/03/29 09:05:40;;;;;;;189.60;76.57;;;;;;;;;;5020893;28;20401;-61
2022/03/29 09:08:09;;;;;;;191.95;81.47;;;;;;;;;;5018162;28;20030;-61
2022/03/29 09:10:38;;;;;;;188.20;81.90;;;;;;;;;;5014104;28;20480;-60
2022/03/29 09:13:22;;;;;;;186.10;83.85;;;;;;;;;;5016909;28;20118;-61
2022/03/29 09:15:49;;;;;;;184.95;81.43;;;;;;;;;;5013978;28;20308;-60
2022/03/29 09:18:16;;;;;;;179.43;74.10;;;;;;;;;;5017271;28;20042;-61
2022/03/29 09:20:42;;;;;;;177.40;74.38;;;;;;;;;;5025117;28;20017;-61
2022/03/29 09:23:17;;;;;;;185.20;77.53;;;;;;;;;;5017236;28;20030;-61
2022/03/29 09:25:47;;;;;;;177.18;78.15;;;;;;;;;;5016332;28;20910;-61
2022/03/29 09:28:17;;;;;;;176.70;73.68;;;;;;;;;;5019789;28;20032;-61
2022/03/29 09:30:54;;;;;;;177.65;73.15;;;;;;;;;;5017963;28;20117;-61
2022/03/29 09:33:22;;;;;;;175.57;79.15;;;;;;;;;;5018346;28;20033;-61
2022/03/29 09:35:57;;;;;;;177.77;79.22;;;;;;;;;;5021321;28;20350;-61
2022/03/29 09:38:32;;;;;;;174.45;79.03;;;;;;;;;;5024079;28;20026;-60
2022/03/29 09:40:59;;;;;;;172.15;77.55;;;;;;;;;;5018854;28;20048;-61
2022/03/29 09:43:26;;;;;;;159.23;74.10;;;;;;;;;;5016394;28;20036;-61
2022/03/29 09:45:55;;;;;;;167.40;75.38;;;;;;;;;;5021628;28;20018;-61
2022/03/29 09:48:31;;;;;;;169.02;77.35;;;;;;;;;;5003076;28;20458;-61
2022/03/29 09:51:09;;;;;;;162.35;73.90;;;;;;;;;;5016300;28;20053;-61
2022/03/29 09:53:38;;;;;;;158.73;74.70;;;;;;;;;;5016758;28;20075;-61
2022/03/29 09:56:05;;;;;;;156.88;74.80;;;;;;;;;;5016925;28;20400;-61
2022/03/29 09:58:32;;;;;;;160.93;73.68;;;;;;;;;;5019373;28;20044;-61
2022/03/29 10:00:58;;;;;;;161.25;74.00;;;;;;;;;;5020234;28;20014;-61
2022/03/29 10:03:27;;;;;;;164.63;73.03;;;;;;;;;;5021399;28;20018;-61
2022/03/29 10:06:01;;;;;;;158.73;71.10;;;;;;;;;;5016579;28;20024;-61
2022/03/29 10:11:14;;;;;;;168.55;76.53;;;;;;;;;;5021738;28;20385;-61
2022/03/29 10:13:40;;;;;;;173.88;78.80;;;;;;;;;;5002686;28;20208;-61
2022/03/29 10:16:09;;;;;;;166.48;79.07;;;;;;;;;;5018420;28;20033;-61
2022/03/29 10:18:36;;;;;;;170.23;79.80;;;;;;;;;;5021209;28;20032;-61
2022/03/29 10:21:04;;;;;;;175.57;82.28;;;;;;;;;;5023577;28;20022;-60
2022/03/29 10:23:31;;;;;;;177.23;83.57;;;;;;;;;;5016220;28;20052;-61
2022/03/29 10:25:58;;;;;;;170.45;80.05;;;;;;;;;;5018710;28;20033;-61
2022/03/29 10:28:28;;;;;;;156.57;77.28;;;;;;;;;;5020793;28;20057;-61
2022/03/29 10:30:54;;;;;;;151.27;72.63;;;;;;;;;;5023333;28;20504;-61
2022/03/29 10:33:23;;;;;;;150.73;72.68;;;;;;;;;;5020076;28;20047;-61
2022/03/29 10:36:09;;;;;;;152.77;72.55;;;;;;;;;;5019079;28;20033;-61
2022/03/29 10:38:44;;;;;;;144.30;68.57;;;;;;;;;;5015147;28;20061;-61
2022/03/29 10:41:29;;;;;;;164.20;76.07;;;;;;;;;;5016871;28;20473;-61
2022/03/29 10:44:04;;;;;;;174.10;78.07;;;;;;;;;;5019539;28;20409;-61
2022/03/29 10:46:40;;;;;;;180.32;80.68;;;;;;;;;;5014037;28;20024;-61
2022/03/29 10:49:20;;;;;;;191.20;87.70;;;;;;;;;;4999623;28;20037;-61
2022/03/29 10:51:46;;;;;;;176.85;78.13;;;;;;;;;;5018151;28;20112;-61
2022/03/29 10:54:29;;;;;;;180.52;83.00;;;;;;;;;;5018404;28;20025;-61
2022/03/29 10:57:19;;;;;;;170.23;78.47;;;;;;;;;;5017478;28;20613;-61
2022/03/29 10:59:50;;;;;;;165.13;77.75;;;;;;;;;;5015479;28;20017;-62
2022/03/29 11:02:22;;;;;;;169.68;74.68;;;;;;;;;;5019162;28;20179;-61
2022/03/29 11:05:07;;;;;;;168.55;79.70;;;;;;;;;;5019045;28;20022;-61
2022/03/29 11:07:35;;;;;;;164.55;77.20;;;;;;;;;;5000225;28;20036;-61
2022/03/29 11:10:10;;;;;;;239.10;123.20;;;;;;;;;;5016133;28;20076;-61
2022/03/29 11:12:57;;;;;;;155.63;74.78;;;;;;;;;;5017228;28;20033;-61
2022/03/29 11:15:36;;;;;;;143.18;70.68;;;;;;;;;;5019041;28;20022;-61
2022/03/29 11:18:04;;;;;;;135.35;66.07;;;;;;;;;;5020904;28;20029;-61
2022/03/29 11:20:35;;;;;;;134.60;67.00;;;;;;;;;;5026192;28;20620;-61
2022/03/29 11:23:04;;;;;;;134.85;66.57;;;;;;;;;;5018456;28;20022;-61
2022/03/29 11:25:31;;;;;;;135.95;68.82;;;;;;;;;;5025105;28;20025;-61
2022/03/29 11:28:26;;;;;;;139.13;70.20;;;;;;;;;;5023427;28;20445;-61
2022/03/29 11:30:54;;;;;;;131.00;67.47;;;;;;;;;;5008354;28;20037;-61
2022/03/29 11:33:30;;;;;;;134.68;69.43;;;;;;;;;;5024331;28;20098;-61
2022/03/29 11:35:56;;;;;;;140.13;68.95;;;;;;;;;;5018198;28;20049;-61
2022/03/29 11:38:22;;;;;;;141.40;72.18;;;;;;;;;;5021606;28;20174;-61
2022/03/29 11:40:48;;;;;;;140.27;68.05;;;;;;;;;;5018734;28;20026;-61
2022/03/29 11:43:19;;;;;;;132.95;64.53;;;;;;;;;;5021064;28;20037;-61
2022/03/29 11:45:47;;;;;;;138.20;71.75;;;;;;;;;;5020451;28;20538;-62
2022/03/29 11:48:14;;;;;;;146.05;75.00;;;;;;;;;;5014967;28;20105;-61
2022/03/29 11:50:40;;;;;;;145.77;72.85;;;;;;;;;;5020265;28;20029;-61
2022/03/29 11:53:24;;;;;;;155.32;77.97;;;;;;;;;;5019552;28;20036;-61
2022/03/29 11:55:54;;;;;;;144.70;67.03;;;;;;;;;;5019697;28;20044;-61
2022/03/29 11:58:24;;;;;;;129.43;67.03;;;;;;;;;;5022034;28;20021;-61
2022/03/29 12:00:50;;;;;;;127.40;61.63;;;;;;;;;;5021851;28;20021;-61
2022/03/29 12:03:26;;;;;;;138.02;67.65;;;;;;;;;;4997135;28;20018;-60
2022/03/29 12:06:01;;;;;;;126.28;65.93;;;;;;;;;;5016375;28;20025;-60
2022/03/29 12:08:42;;;;;;;130.77;66.95;;;;;;;;;;5019564;28;20087;-61
2022/03/29 12:11:11;;;;;;;135.07;71.05;;;;;;;;;;4996360;28;20069;-61
2022/03/29 12:13:37;;;;;;;122.78;66.38;;;;;;;;;;5019977;28;20029;-60
2022/03/29 12:16:15;;;;;;;105.97;59.05;;;;;;;;;;5023164;28;20611;-61
2022/03/29 12:18:41;;;;;;;107.70;59.92;;;;;;;;;;5019447;28;20029;-61
2022/03/29 12:21:11;;;;;;;116.07;59.10;;;;;;;;;;5022373;28;20063;-61
2022/03/29 12:23:37;;;;;;;101.68;55.55;;;;;;;;;;5019038;28;20041;-61
2022/03/29 12:26:03;;;;;;;111.05;61.83;;;;;;;;;;5005420;28;20076;-61
2022/03/29 12:28:30;;;;;;;102.70;54.30;;;;;;;;;;5023787;28;20439;-61
2022/03/29 12:30:56;;;;;;;102.80;53.08;;;;;;;;;;5024213;28;20029;-61
2022/03/29 12:33:25;;;;;;;104.47;56.03;;;;;;;;;;5021100;28;20056;-59
2022/03/29 12:36:03;;;;;;;100.95;56.78;;;;;;;;;;5020176;28;20419;-60
2022/03/29 12:38:38;;;;;;;97.22;53.05;;;;;;;;;;5022490;28;20018;-61
2022/03/29 12:41:04;;;;;;;94.75;52.35;;;;;;;;;;5016053;28;20022;-61
2022/03/29 12:43:33;;;;;;;84.20;48.45;;;;;;;;;;5020989;28;20419;-61
2022/03/29 12:45:59;;;;;;;82.90;48.83;;;;;;;;;;5021975;28;20496;-61
2022/03/29 12:48:26;;;;;;;77.18;47.08;;;;;;;;;;5018969;28;20029;-61
2022/03/29 12:50:53;;;;;;;83.57;48.35;;;;;;;;;;5022435;28;20017;-61
2022/03/29 12:53:19;;;;;;;78.47;47.10;;;;;;;;;;5027727;28;20107;-60
2022/03/29 12:55:55;;;;;;;75.60;44.13;;;;;;;;;;5020308;28;20063;-61
2022/03/29 12:58:31;;;;;;;76.85;46.47;;;;;;;;;;5019155;28;20025;-61
2022/03/29 13:00:57;;;;;;;84.40;46.88;;;;;;;;;;5019096;28;20493;-61
2022/03/29 13:03:23;;;;;;;79.75;46.15;;;;;;;;;;5019268;28;20076;-61
2022/03/29 13:05:49;;;;;;;74.45;43.75;;;;;;;;;;5019761;28;20080;-61
2022/03/29 13:08:22;;;;;;;71.95;42.35;;;;;;;;;;5016880;28;20033;-61
2022/03/29 13:10:50;;;;;;;69.80;41.45;;;;;;;;;;5016121;28;20029;-60
2022/03/29 13:13:19;;;;;;;74.65;44.58;;;;;;;;;;5019566;28;20037;-61
2022/03/29 13:15:47;;;;;;;72.97;45.30;;;;;;;;;;5020980;28;20030;-61
2022/03/29 13:18:18;;;;;;;74.38;46.08;;;;;;;;;;5016493;28;20784;-61
2022/03/29 13:20:44;;;;;;;72.60;45.03;;;;;;;;;;5020801;28;20033;-61
2022/03/29 13:23:11;;;;;;;68.05;44.03;;;;;;;;;;5016678;28;20068;-59
2022/03/29 13:25:37;;;;;;;65.60;41.03;;;;;;;;;;5017933;28;20062;-60
2022/03/29 13:28:04;;;;;;;73.45;43.63;;;;;;;;;;5020495;28;20040;-61
2022/03/29 13:30:31;;;;;;;71.43;43.70;;;;;;;;;;5023408;28;20460;-61
2022/03/29 13:32:57;;;;;;;67.97;41.67;;;;;;;;;;5001922;28;20960;-61
2022/03/29 13:35:24;;;;;;;71.93;43.95;;;;;;;;;;5003069;28;20069;-61
2022/03/29 13:37:50;;;;;;;70.53;45.15;;;;;;;;;;5020515;28;20104;-61
2022/03/29 13:40:16;;;;;;;70.10;43.63;;;;;;;;;;5020780;28;20025;-61
2022/03/29 13:42:42;;;;;;;64.13;39.13;;;;;;;;;;5015831;28;20073;-60
2022/03/29 13:45:12;;;;;;;73.40;39.92;;;;;;;;;;5022320;28;20021;-61
2022/03/29 13:47:39;;;;;;;63.05;37.72;;;;;;;;;;5018372;28;20037;-61
2022/03/29 13:50:05;;;;;;;64.22;39.00;;;;;;;;;;5018572;28;20053;-61
2022/03/29 13:52:32;;;;;;;67.20;38.15;;;;;;;;;;5021832;28;20445;-61
2022/03/29 13:54:58;;;;;;;53.17;32.63;;;;;;;;;;5016501;28;20025;-61
2022/03/29 13:57:24;;;;;;;54.28;33.90;;;;;;;;;;5017530;28;20584;-60
2022/03/29 13:59:50;;;;;;;47.53;31.20;;;;;;;;;;5017490;28;20025;-61
2022/03/29 14:02:16;;;;;;;44.13;30.55;;;;;;;;;;5016298;28;20034;-61
2022/03/29 14:04:42;;;;;;;44.92;28.55;;;;;;;;;;5016146;28;20056;-61
2022/03/29 14:07:08;;;;;;;45.38;27.45;;;;;;;;;;5019760;28;20064;-61
2022/03/29 14:09:34;;;;;;;43.90;26.55;;;;;;;;;;5020821;28;20354;-60
2022/03/29 14:12:00;;;;;;;39.72;27.30;;;;;;;;;;5017776;28;20018;-60
2022/03/29 14:14:26;;;;;;;43.78;26.85;;;;;;;;;;4999440;28;20155;-61
2022/03/29 14:16:52;;;;;;;42.60;27.05;;;;;;;;;;5018823;28;20553;-61
2022/03/29 14:19:18;;;;;;;36.38;25.38;;;;;;;;;;5022231;28;20025;-62
2022/03/29 14:21:44;;;;;;;37.40;24.38;;;;;;;;;;5019771;28;20538;-61
2022/03/29 14:24:13;;;;;;;39.20;25.13;;;;;;;;;;5017688;28;20020;-61
2022/03/29 14:26:39;;;;;;;37.05;24.00;;;;;;;;;;5019407;28;20358;-60
2022/03/29 14:29:06;;;;;;;36.95;24.45;;;;;;;;;;5014248;28;20033;-61